createdAt,value
2022-09-23T00:04:56.281Z,0
2022-09-23T00:09:57.853Z,0
2022-09-23T00:14:59.322Z,0
2022-09-23T00:20:01.092Z,0
2022-09-23T00:25:02.663Z,0
2022-09-23T00:30:04.125Z,0
2022-09-23T00:35:05.845Z,0
2022-09-23T00:40:07.634Z,0
2022-09-23T00:45:09.399Z,0
2022-09-23T00:50:11.456Z,0
2022-09-23T00:55:13.213Z,0
2022-09-23T01:00:15.174Z,0
2022-09-23T01:05:16.864Z,0
2022-09-23T01:10:18.444Z,0
2022-09-23T01:15:19.910Z,0
2022-09-23T01:20:21.563Z,0
2022-09-23T01:25:23.107Z,0
2022-09-23T01:30:24.745Z,0
2022-09-23T01:35:26.296Z,0
2022-09-23T01:40:27.824Z,0
2022-09-23T01:45:29.289Z,0
2022-09-23T01:50:31.131Z,0
2022-09-23T01:55:32.844Z,0
2022-09-23T02:00:34.599Z,0
2022-09-23T02:05:36.125Z,0
2022-09-23T02:10:37.604Z,0
2022-09-23T02:15:39.056Z,0
2022-09-23T02:20:40.817Z,0
2022-09-23T02:25:42.344Z,0
2022-09-23T02:30:43.813Z,0.88715
2022-09-23T02:35:45.262Z,0
2022-09-23T02:40:47.043Z,0
2022-09-23T02:45:48.687Z,0
2022-09-23T02:50:50.581Z,0
2022-09-23T02:55:52.057Z,0
2022-09-23T03:00:53.638Z,0
2022-09-23T03:05:55.144Z,0
2022-09-23T03:10:56.622Z,0
2022-09-23T03:15:58.043Z,0.88715
2022-09-23T03:20:59.731Z,0
2022-09-23T03:26:01.284Z,0.88715
2022-09-23T03:31:03.039Z,0.88715
2022-09-23T03:36:04.761Z,1.16185
2022-09-23T03:41:06.488Z,0.8296
2022-09-23T03:46:08.302Z,2.01475
2022-09-23T03:51:10.383Z,7.89335
2022-09-23T03:56:12.214Z,18.53445
2022-09-23T04:01:14.022Z,30.89075
2022-09-23T04:06:15.894Z,40.68375
2022-09-23T04:11:17.367Z,65.4515
2022-09-23T04:16:19.075Z,96.45255
2022-09-23T04:21:20.798Z,125.1299
2022-09-23T04:26:22.388Z,151.668
2022-09-23T04:31:23.992Z,229.4415
2022-09-23T04:36:25.799Z,213.3202
2022-09-23T04:41:27.294Z,226.7642
2022-09-23T04:46:29.055Z,231.7805
2022-09-23T04:51:30.718Z,253.48675
2022-09-23T04:56:32.371Z,267.42895
2022-09-23T05:01:34.373Z,280.099
2022-09-23T05:06:36.325Z,299.4264
2022-09-23T05:11:38.083Z,345.12645
2022-09-23T05:16:39.851Z,436.56455
2022-09-23T05:21:41.978Z,471.36675
2022-09-23T05:26:43.676Z,502.904
2022-09-23T05:31:45.503Z,524.5931
2022-09-23T05:36:47.330Z,555.9459
2022-09-23T05:41:49.116Z,594.1405
2022-09-23T05:46:51.018Z,619.07555
2022-09-23T05:51:53.027Z,642.0558
2022-09-23T05:56:54.752Z,654.2105
2022-09-23T06:01:56.703Z,664.7793
2022-09-23T06:07:03.098Z,677.6718
2022-09-23T06:12:05.379Z,683.27945
2022-09-23T06:17:07.143Z,700.08155
2022-09-23T06:22:09.102Z,719.5021
2022-09-23T06:27:10.816Z,735.38195
2022-09-23T06:32:12.513Z,752.8477
2022-09-23T06:37:19.426Z,777.8189
2022-09-23T06:42:21.853Z,781.6562
2022-09-23T06:47:23.283Z,808.04785
2022-09-23T06:52:25.656Z,821.89875
2022-09-23T06:57:27.093Z,824.97925
2022-09-23T07:02:28.631Z,845.80125
2022-09-23T07:07:30.414Z,850.7814
2022-09-23T07:12:32.166Z,882.29965
2022-09-23T07:17:33.734Z,879.38645
2022-09-23T07:22:36.256Z,913.3577
2022-09-23T07:27:37.709Z,917.12085
2022-09-23T07:32:47.606Z,957.4547
2022-09-23T07:37:50.556Z,962.41585
2022-09-23T07:42:52.332Z,1026.31945
2022-09-23T07:47:53.877Z,1049.7599
2022-09-23T07:52:55.506Z,1033.80775
2022-09-23T07:57:57.001Z,1055.7726
2022-09-23T08:02:58.587Z,1092.67605
2022-09-23T08:08:00.246Z,1102.22945
2022-09-23T08:13:01.797Z,1124.74765
2022-09-23T08:18:03.199Z,1143.11665
2022-09-23T08:23:05.635Z,1195.5482
2022-09-23T08:28:07.169Z,1208.9009
2022-09-23T08:33:08.933Z,1238.09545
2022-09-23T08:38:10.460Z,1263.2511
2022-09-23T08:43:12.189Z,1305.88965
2022-09-23T08:48:13.635Z,1317.2134
2022-09-23T08:53:16.137Z,1358.2109
2022-09-23T08:58:24.906Z,1372.9289
2022-09-23T09:03:27.321Z,1410.1271
2022-09-23T09:08:29.242Z,1444.33795
2022-09-23T09:13:30.944Z,1461.4158
2022-09-23T09:18:32.672Z,1482.4774
2022-09-23T09:23:34.626Z,1536.4397
2022-09-23T09:28:36.370Z,1548.0772
2022-09-23T09:33:38.102Z,1563.20025
2022-09-23T09:38:39.951Z,1596.0648
2022-09-23T09:43:44.134Z,1628.68975
2022-09-23T09:48:46.170Z,1672.9142
2022-09-23T09:53:48.174Z,1688.2217
2022-09-23T09:58:49.917Z,1750.66685
2022-09-23T10:03:55.553Z,1757.28805
2022-09-23T10:08:59.012Z,1826.0958
2022-09-23T10:14:00.734Z,1804.90675
2022-09-23T10:19:02.492Z,1851.16015
2022-09-23T10:24:05.502Z,1902.7056
2022-09-23T10:29:07.352Z,1948.7004
2022-09-23T10:34:09.166Z,2002.09035
2022-09-23T10:39:10.943Z,2030.7677
2022-09-23T10:44:12.645Z,2043.0137
2022-09-23T10:49:14.404Z,2077.07625
2022-09-23T10:54:16.362Z,2100.57185
2022-09-23T10:59:17.997Z,2154.5703
2022-09-23T11:04:19.517Z,2188.688
2022-09-23T11:09:21.017Z,2234.84825
2022-09-23T11:14:22.477Z,2234.93955
2022-09-23T11:19:24.068Z,2287.75715
2022-09-23T11:24:26.566Z,2279.6052
2022-09-23T11:29:27.974Z,2303.1921
2022-09-23T11:34:29.398Z,2326.5394
2022-09-23T11:39:30.898Z,2308.11525
2022-09-23T11:44:32.333Z,2345.40475
2022-09-23T11:49:33.781Z,2353.7773
2022-09-23T11:54:35.492Z,2316.52395
2022-09-23T11:59:40.134Z,2289.59795
2022-09-23T12:04:53.379Z,2317.46335
2022-09-23T12:09:58.599Z,2329.2473
2022-09-23T12:15:00.308Z,2310.3991
2022-09-23T12:20:01.930Z,2318.75265
2022-09-23T12:25:04.113Z,2329.50405
2022-09-23T12:30:05.706Z,2316.9443
2022-09-23T12:35:07.285Z,2311.48495
2022-09-23T12:40:08.978Z,2270.61675
2022-09-23T12:45:10.501Z,2249.9792
2022-09-23T12:50:16.646Z,2216.5613
2022-09-23T12:55:19.602Z,2192.14345
2022-09-23T13:00:21.222Z,2199.1507
2022-09-23T13:05:22.725Z,2147.82585
2022-09-23T13:10:24.289Z,2115.01645
2022-09-23T13:15:25.945Z,2089.7315
2022-09-23T13:20:27.407Z,2062.197
2022-09-23T13:25:29.521Z,2034.84695
2022-09-23T13:30:30.977Z,2024.42645
2022-09-23T13:35:32.532Z,1948.8872
2022-09-23T13:40:34.162Z,1927.03265
2022-09-23T13:45:35.800Z,1848.8008
2022-09-23T13:50:37.601Z,1808.3015
2022-09-23T13:55:39.361Z,1761.6982
2022-09-23T14:00:40.920Z,1711.11115
2022-09-23T14:05:42.589Z,1692.5767
2022-09-23T14:10:44.147Z,1644.4978
2022-09-23T14:15:45.764Z,1590.0563
2022-09-23T14:20:47.512Z,1534.58225
2022-09-23T14:25:49.554Z,1487.84965
2022-09-23T14:30:51.249Z,1387.1186
2022-09-23T14:35:52.969Z,1315.0649
2022-09-23T14:40:54.815Z,1218.24345
2022-09-23T14:45:56.648Z,1138.48085
2022-09-23T14:50:58.466Z,1008.92415
2022-09-23T14:56:01.344Z,879.23815
2022-09-23T15:01:03.223Z,772.1065
2022-09-23T15:06:08.457Z,642.2722
2022-09-23T15:11:10.562Z,518.4126
2022-09-23T15:16:12.417Z,375.57325
2022-09-23T15:21:14.244Z,296.70145
2022-09-23T15:26:16.220Z,226.4814
2022-09-23T15:31:18.041Z,162.3057
2022-09-23T15:36:19.554Z,124.4996
2022-09-23T15:41:21.213Z,93.2117
2022-09-23T15:46:22.706Z,66.6645
2022-09-23T15:51:24.306Z,51.75075
2022-09-23T15:56:26.101Z,41.625
2022-09-23T16:01:27.784Z,27.47935
2022-09-23T16:06:29.297Z,15.1782
2022-09-23T16:11:31.177Z,5.33005
2022-09-23T16:16:32.839Z,4.59225
2022-09-23T16:21:34.296Z,1.6592
2022-09-23T16:26:35.961Z,0.4148
2022-09-23T16:31:37.528Z,0
2022-09-23T16:36:39.315Z,0.88715
2022-09-23T16:41:41.109Z,0.88715
2022-09-23T16:46:43.060Z,0
2022-09-23T16:51:44.861Z,0
2022-09-23T16:56:46.799Z,0
2022-09-23T17:01:48.626Z,0
2022-09-23T17:06:50.558Z,0
2022-09-23T17:11:52.406Z,0
2022-09-23T17:16:54.135Z,0
2022-09-23T17:21:55.856Z,0
2022-09-23T17:26:57.867Z,0
2022-09-23T17:31:59.625Z,0
2022-09-23T17:37:01.380Z,0
2022-09-23T17:42:03.337Z,0
2022-09-23T17:47:05.048Z,0
2022-09-23T17:52:06.760Z,0
2022-09-23T17:57:08.703Z,0
2022-09-23T18:02:14.931Z,0
2022-09-23T18:07:17.353Z,0
2022-09-23T18:12:19.215Z,0
2022-09-23T18:17:20.651Z,0
2022-09-23T18:22:22.102Z,0
2022-09-23T18:27:23.994Z,0
2022-09-23T18:32:25.583Z,0
2022-09-23T18:37:27.018Z,0
2022-09-23T18:42:28.780Z,0
2022-09-23T18:47:30.241Z,0
2022-09-23T18:52:31.969Z,0
2022-09-23T18:57:33.943Z,0
2022-09-23T19:02:36.095Z,0
2022-09-23T19:07:37.882Z,0
2022-09-23T19:12:39.682Z,0
2022-09-23T19:17:41.331Z,0
2022-09-23T19:22:43.037Z,0
2022-09-23T19:27:44.893Z,0
2022-09-23T19:32:46.694Z,0
2022-09-23T19:37:48.148Z,0
2022-09-23T19:42:50.047Z,0
2022-09-23T19:47:51.701Z,0
2022-09-23T19:52:53.397Z,0
2022-09-23T19:57:55.390Z,0
2022-09-23T20:02:57.089Z,0
2022-09-23T20:07:58.748Z,0
2022-09-23T20:13:00.534Z,0
2022-09-23T20:18:02.277Z,0
2022-09-23T20:23:04.010Z,0
2022-09-23T20:28:05.956Z,0
2022-09-23T20:33:07.587Z,0
2022-09-23T20:38:09.335Z,0
2022-09-23T20:43:11.144Z,0
2022-09-23T20:48:12.988Z,0
2022-09-23T20:53:14.716Z,0
2022-09-23T20:58:16.648Z,0
2022-09-23T21:03:18.353Z,0
2022-09-23T21:08:20.110Z,0
2022-09-23T21:13:21.660Z,0
2022-09-23T21:18:23.131Z,0
2022-09-23T21:23:24.586Z,0
2022-09-23T21:28:26.511Z,0
2022-09-23T21:33:28.040Z,0
2022-09-23T21:38:29.775Z,0
2022-09-23T21:43:31.321Z,0
2022-09-23T21:48:32.761Z,0
2022-09-23T21:53:34.194Z,0
2022-09-23T21:58:36.043Z,0
2022-09-23T22:03:37.577Z,0
2022-09-23T22:08:39.135Z,0
2022-09-23T22:13:40.816Z,0
2022-09-23T22:18:42.550Z,0
2022-09-23T22:23:44.267Z,0
2022-09-23T22:28:46.061Z,0
2022-09-23T22:33:47.529Z,0
2022-09-23T22:38:48.954Z,0
2022-09-23T22:43:50.481Z,0
2022-09-23T22:48:51.881Z,0
2022-09-23T22:53:53.341Z,0
2022-09-23T22:58:55.120Z,0
2022-09-23T23:03:56.673Z,0
2022-09-23T23:08:58.160Z,0
2022-09-23T23:13:59.675Z,0
2022-09-23T23:19:01.337Z,0
2022-09-23T23:24:03.084Z,0
2022-09-23T23:29:04.926Z,0.88715
2022-09-23T23:34:11.454Z,0
2022-09-23T23:39:12.926Z,0
2022-09-23T23:44:14.398Z,0
2022-09-23T23:49:15.869Z,0
2022-09-23T23:54:17.450Z,0
2022-09-23T23:59:19.395Z,0
